Overview Statistics Trail Chart Weather Telemetry Raw packets
 

This is the latest recevied weather packets stored in our database for station/object N1JOV-7. If no packets are shown the sender has not sent any weather packets the latest 10 day(s).

<< 50 51 52 53 54 55 56 >>
Time Temp. Humidity Pressure Rain* Wind** Luminosity Snow
1787854862 26.67° C 70% 1017.3 hPa 0 mm - - -
1787854261 26.67° C 70% 1017.3 hPa 0 mm - - -
1787853661 26.11° C 72% 1017.4 hPa 0 mm - - -
1787853061 27.22° C 70% 1017.2 hPa 0 mm - - -
1787852461 26.11° C 70% 1017.4 hPa 0 mm - - -
1787851861 26.67° C 67% 1017.5 hPa 0 mm - - -
1787851261 26.67° C 66% 1017.8 hPa 0 mm - - -
1787850662 27.22° C 64% 1017.7 hPa 0 mm - - -
1787850062 26.67° C 65% 1017.8 hPa 0 mm - - -
1787849462 26.67° C 66% 1017.9 hPa 0 mm - - -
1787848862 27.22° C 66% 1017.9 hPa 0 mm - - -
1787848262 26.67° C 67% 1018.1 hPa 0 mm - - -
1787847661 26.67° C 68% 1018.1 hPa 0 mm - - -
1787847061 26.11° C 70% 1018.2 hPa 0 mm - - -
1787846461 26.11° C 70% 1018.4 hPa 0 mm - - -
1787845861 26.11° C 69% 1018.4 hPa 0 mm - - -
1787845261 26.67° C 67% 1018.4 hPa 0 mm - - -
1787844661 27.22° C 65% 1018.3 hPa 0 mm - - -
1787844061 27.78° C 64% 1018.1 hPa 0 mm - - -
1787843462 27.22° C 67% 1018.2 hPa 0 mm - - -
1787842862 26.67° C 69% 1018.5 hPa 0 mm - - -
1787842262 26.67° C 70% 1018.4 hPa 0 mm - - -
1787841662 25° C 73% 1018.4 hPa 0 mm - - -
1787841062 25.56° C 74% 1018.5 hPa 0 mm - - -
1787840461 25° C 76% 1018.6 hPa 0 mm - - -

* Rain latest hour (hover to see other rain measurements)
** Current wind speed in m/s (hover to see current wind gust speed)